Main page
METAR-TAF:

METAR-TAF

Airports :

Roman Tmetuchl International Airport

Koror, Babeldaob, Palau

latitude: 07-22N, longitude: 134-32E, elevation: 54 m

Current weather observation

The report was made 34 minutes ago, at 19:50 UTC
Wind 6 kt from the West/Southwest
Temperature 27°C
Humidity 84%
Pressure 1009 hPa
Visibility: 24.1 km
Scattered clouds at a height of 1600 ft
Broken clouds at a height of 30000 ft

METAR: PTRO 181950Z 24006KT 15SM SCT016 BKN300 27/24 A2981

Time: 05:24 (20:24 UTC)

Forecast

The report was made 2 hours and 58 minutes ago, at 17:26 UTC
Forecast valid from 18 at 18 UTC to 19 at 18 UTC
Wind 9 kt from the Southwest
Visibility: 10 km
Scattered clouds at a height of 1600 ft
Broken clouds at a height of 13000 ft
showers in vicinity
Temporary
from 18 at 19 UTC to 18 at 23 UTC
Visibility: 8.0 km
Scattered clouds at a height of 1400 ft
Broken clouds at a height of 2000 ft
rain showers

TAF: PTRO 181726Z 1818/1918 23009KT P6SM VCSH SCT016 BKN130 TEMPO 1819/1823 5SM SHRA SCT014 BKN020

Weather observations and forecasts of more than 4000 airports (METAR and TAF reports).

The available stations are represented by yellow and red dots on the map.

Hover mouse over dot to see the name of the station.

Then click to see weather observations and forecasts.

To change the map : click on the green buttons with a black cross to zoom in, on the green button with a dash to zoom out, or on the green arrows for adjacent maps.


METAR-TAF: